sensor_id;sensor_type;location;lat;lon;timestamp;P1;durP1;ratioP1;P2;durP2;ratioP2
76322;SDS011;65141;42.964;21.838;2023-01-25T00:00:39;7.45;;;3.78;;
76322;SDS011;65141;42.964;21.838;2023-01-25T00:03:05;6.95;;;3.45;;
76322;SDS011;65141;42.964;21.838;2023-01-25T00:05:32;7.30;;;3.38;;
76322;SDS011;65141;42.964;21.838;2023-01-25T00:07:58;6.55;;;3.53;;
76322;SDS011;65141;42.964;21.838;2023-01-25T00:10:24;6.95;;;3.20;;
76322;SDS011;65141;42.964;21.838;2023-01-25T00:12:50;7.05;;;3.47;;
76322;SDS011;65141;42.964;21.838;2023-01-25T00:15:16;5.70;;;3.20;;
76322;SDS011;65141;42.964;21.838;2023-01-25T00:17:42;8.75;;;3.25;;
76322;SDS011;65141;42.964;21.838;2023-01-25T00:20:08;7.13;;;3.20;;
76322;SDS011;65141;42.964;21.838;2023-01-25T00:22:34;5.95;;;3.20;;
76322;SDS011;65141;42.964;21.838;2023-01-25T00:25:00;6.00;;;3.25;;
76322;SDS011;65141;42.964;21.838;2023-01-25T00:27:27;6.00;;;3.33;;
76322;SDS011;65141;42.964;21.838;2023-01-25T00:29:53;6.88;;;3.83;;
76322;SDS011;65141;42.964;21.838;2023-01-25T00:34:45;8.25;;;3.40;;
76322;SDS011;65141;42.964;21.838;2023-01-25T00:39:57;6.13;;;3.28;;
76322;SDS011;65141;42.964;21.838;2023-01-25T00:42:23;6.72;;;3.05;;
76322;SDS011;65141;42.964;21.838;2023-01-25T00:44:49;7.80;;;3.70;;
76322;SDS011;65141;42.964;21.838;2023-01-25T00:47:15;6.72;;;3.70;;
76322;SDS011;65141;42.964;21.838;2023-01-25T00:49:42;7.38;;;3.72;;
76322;SDS011;65141;42.964;21.838;2023-01-25T00:52:08;8.02;;;4.28;;
76322;SDS011;65141;42.964;21.838;2023-01-25T00:54:34;8.13;;;3.92;;
76322;SDS011;65141;42.964;21.838;2023-01-25T00:57:00;8.48;;;4.32;;
76322;SDS011;65141;42.964;21.838;2023-01-25T00:59:26;7.13;;;3.50;;
76322;SDS011;65141;42.964;21.838;2023-01-25T01:01:53;6.88;;;4.28;;
76322;SDS011;65141;42.964;21.838;2023-01-25T01:04:19;6.90;;;3.63;;
76322;SDS011;65141;42.964;21.838;2023-01-25T01:06:49;7.88;;;4.20;;
76322;SDS011;65141;42.964;21.838;2023-01-25T01:09:16;7.28;;;4.55;;
76322;SDS011;65141;42.964;21.838;2023-01-25T01:11:42;8.32;;;3.55;;
76322;SDS011;65141;42.964;21.838;2023-01-25T01:14:09;7.00;;;4.00;;
76322;SDS011;65141;42.964;21.838;2023-01-25T01:16:35;7.00;;;4.10;;
76322;SDS011;65141;42.964;21.838;2023-01-25T01:19:01;8.20;;;3.60;;
76322;SDS011;65141;42.964;21.838;2023-01-25T01:21:27;7.10;;;3.33;;
76322;SDS011;65141;42.964;21.838;2023-01-25T01:23:53;8.20;;;4.50;;
76322;SDS011;65141;42.964;21.838;2023-01-25T01:26:20;6.78;;;2.60;;
76322;SDS011;65141;42.964;21.838;2023-01-25T01:28:46;7.10;;;3.22;;
76322;SDS011;65141;42.964;21.838;2023-01-25T01:31:16;7.40;;;3.22;;
76322;SDS011;65141;42.964;21.838;2023-01-25T01:33:42;7.45;;;3.90;;
76322;SDS011;65141;42.964;21.838;2023-01-25T01:36:10;6.88;;;3.22;;
76322;SDS011;65141;42.964;21.838;2023-01-25T01:38:36;8.00;;;4.05;;
76322;SDS011;65141;42.964;21.838;2023-01-25T01:41:02;7.13;;;3.13;;
76322;SDS011;65141;42.964;21.838;2023-01-25T01:43:28;8.60;;;3.30;;
76322;SDS011;65141;42.964;21.838;2023-01-25T01:46:01;7.80;;;3.38;;
76322;SDS011;65141;42.964;21.838;2023-01-25T01:48:32;6.32;;;3.67;;
76322;SDS011;65141;42.964;21.838;2023-01-25T01:51:00;9.27;;;3.72;;
76322;SDS011;65141;42.964;21.838;2023-01-25T01:53:27;6.57;;;3.05;;
76322;SDS011;65141;42.964;21.838;2023-01-25T01:55:56;9.15;;;4.18;;
76322;SDS011;65141;42.964;21.838;2023-01-25T01:58:24;7.70;;;3.40;;
76322;SDS011;65141;42.964;21.838;2023-01-25T02:00:50;6.57;;;2.83;;
76322;SDS011;65141;42.964;21.838;2023-01-25T02:03:16;7.43;;;3.20;;
76322;SDS011;65141;42.964;21.838;2023-01-25T02:06:00;6.63;;;3.30;;
76322;SDS011;65141;42.964;21.838;2023-01-25T02:08:29;6.90;;;3.38;;
76322;SDS011;65141;42.964;21.838;2023-01-25T02:10:56;4.97;;;2.60;;
76322;SDS011;65141;42.964;21.838;2023-01-25T02:13:23;5.35;;;3.10;;
76322;SDS011;65141;42.964;21.838;2023-01-25T02:15:49;8.82;;;4.95;;
76322;SDS011;65141;42.964;21.838;2023-01-25T02:18:16;11.50;;;5.88;;
76322;SDS011;65141;42.964;21.838;2023-01-25T02:20:53;11.13;;;5.35;;
76322;SDS011;65141;42.964;21.838;2023-01-25T02:23:23;6.30;;;3.45;;
76322;SDS011;65141;42.964;21.838;2023-01-25T02:25:50;6.18;;;3.33;;
76322;SDS011;65141;42.964;21.838;2023-01-25T02:28:18;6.75;;;2.97;;
76322;SDS011;65141;42.964;21.838;2023-01-25T02:30:46;7.25;;;3.03;;
76322;SDS011;65141;42.964;21.838;2023-01-25T02:33:12;6.32;;;3.10;;
76322;SDS011;65141;42.964;21.838;2023-01-25T02:35:49;6.60;;;3.15;;
76322;SDS011;65141;42.964;21.838;2023-01-25T02:38:16;7.22;;;3.25;;
76322;SDS011;65141;42.964;21.838;2023-01-25T02:40:44;6.03;;;3.33;;
76322;SDS011;65141;42.964;21.838;2023-01-25T02:43:11;5.93;;;2.83;;
76322;SDS011;65141;42.964;21.838;2023-01-25T02:45:37;7.45;;;3.20;;
76322;SDS011;65141;42.964;21.838;2023-01-25T02:48:03;5.93;;;2.85;;
76322;SDS011;65141;42.964;21.838;2023-01-25T02:50:29;6.70;;;4.22;;
76322;SDS011;65141;42.964;21.838;2023-01-25T02:52:56;7.93;;;4.45;;
76322;SDS011;65141;42.964;21.838;2023-01-25T02:55:22;8.73;;;4.90;;
76322;SDS011;65141;42.964;21.838;2023-01-25T02:57:48;6.57;;;3.95;;
76322;SDS011;65141;42.964;21.838;2023-01-25T03:00:14;10.07;;;4.60;;
76322;SDS011;65141;42.964;21.838;2023-01-25T03:02:40;8.70;;;4.35;;
76322;SDS011;65141;42.964;21.838;2023-01-25T03:05:06;7.57;;;3.95;;
76322;SDS011;65141;42.964;21.838;2023-01-25T03:07:32;9.00;;;4.78;;
76322;SDS011;65141;42.964;21.838;2023-01-25T03:09:58;8.85;;;4.22;;
76322;SDS011;65141;42.964;21.838;2023-01-25T03:12:24;9.20;;;3.78;;
76322;SDS011;65141;42.964;21.838;2023-01-25T03:14:50;11.35;;;5.63;;
76322;SDS011;65141;42.964;21.838;2023-01-25T03:17:16;9.63;;;5.72;;
76322;SDS011;65141;42.964;21.838;2023-01-25T03:19:42;8.43;;;4.13;;
76322;SDS011;65141;42.964;21.838;2023-01-25T03:22:08;7.40;;;3.72;;
76322;SDS011;65141;42.964;21.838;2023-01-25T03:24:35;6.63;;;3.58;;
76322;SDS011;65141;42.964;21.838;2023-01-25T03:27:01;8.10;;;4.13;;
76322;SDS011;65141;42.964;21.838;2023-01-25T03:29:38;7.57;;;3.30;;
76322;SDS011;65141;42.964;21.838;2023-01-25T03:32:04;8.18;;;3.65;;
76322;SDS011;65141;42.964;21.838;2023-01-25T03:34:30;7.30;;;4.07;;
76322;SDS011;65141;42.964;21.838;2023-01-25T03:36:56;7.35;;;4.20;;
76322;SDS011;65141;42.964;21.838;2023-01-25T03:39:22;7.25;;;3.97;;
76322;SDS011;65141;42.964;21.838;2023-01-25T03:41:48;11.45;;;4.50;;
76322;SDS011;65141;42.964;21.838;2023-01-25T03:44:15;8.68;;;4.72;;
76322;SDS011;65141;42.964;21.838;2023-01-25T03:46:41;8.10;;;4.22;;
76322;SDS011;65141;42.964;21.838;2023-01-25T03:49:07;8.23;;;4.38;;
76322;SDS011;65141;42.964;21.838;2023-01-25T03:51:33;8.10;;;3.60;;
76322;SDS011;65141;42.964;21.838;2023-01-25T03:54:00;7.43;;;4.07;;
76322;SDS011;65141;42.964;21.838;2023-01-25T03:56:26;7.68;;;3.58;;
76322;SDS011;65141;42.964;21.838;2023-01-25T03:58:52;8.05;;;4.28;;
76322;SDS011;65141;42.964;21.838;2023-01-25T04:01:18;9.95;;;4.70;;
76322;SDS011;65141;42.964;21.838;2023-01-25T04:03:44;8.07;;;4.75;;
76322;SDS011;65141;42.964;21.838;2023-01-25T04:06:10;7.07;;;3.50;;
76322;SDS011;65141;42.964;21.838;2023-01-25T04:08:36;9.45;;;4.38;;
76322;SDS011;65141;42.964;21.838;2023-01-25T04:11:04;7.85;;;4.28;;
76322;SDS011;65141;42.964;21.838;2023-01-25T04:13:30;7.50;;;4.18;;
76322;SDS011;65141;42.964;21.838;2023-01-25T04:15:59;7.93;;;4.53;;
76322;SDS011;65141;42.964;21.838;2023-01-25T04:18:25;8.23;;;4.65;;
76322;SDS011;65141;42.964;21.838;2023-01-25T04:20:52;7.72;;;4.30;;
76322;SDS011;65141;42.964;21.838;2023-01-25T04:23:18;8.73;;;3.75;;
76322;SDS011;65141;42.964;21.838;2023-01-25T04:25:53;9.50;;;4.35;;
76322;SDS011;65141;42.964;21.838;2023-01-25T04:28:20;8.77;;;3.92;;
76322;SDS011;65141;42.964;21.838;2023-01-25T04:30:46;9.65;;;4.55;;
76322;SDS011;65141;42.964;21.838;2023-01-25T04:33:12;8.98;;;4.03;;
76322;SDS011;65141;42.964;21.838;2023-01-25T04:35:38;10.02;;;4.57;;
76322;SDS011;65141;42.964;21.838;2023-01-25T04:38:04;6.90;;;4.00;;
76322;SDS011;65141;42.964;21.838;2023-01-25T04:40:30;12.38;;;6.35;;
76322;SDS011;65141;42.964;21.838;2023-01-25T04:42:56;8.30;;;4.35;;
76322;SDS011;65141;42.964;21.838;2023-01-25T04:45:23;10.68;;;5.95;;
76322;SDS011;65141;42.964;21.838;2023-01-25T04:47:54;10.48;;;6.68;;
76322;SDS011;65141;42.964;21.838;2023-01-25T04:50:20;10.50;;;5.43;;
76322;SDS011;65141;42.964;21.838;2023-01-25T05:00:04;8.43;;;3.60;;
76322;SDS011;65141;42.964;21.838;2023-01-25T05:02:31;6.90;;;3.47;;
76322;SDS011;65141;42.964;21.838;2023-01-25T05:04:57;8.55;;;3.85;;
76322;SDS011;65141;42.964;21.838;2023-01-25T05:07:23;8.77;;;4.53;;
76322;SDS011;65141;42.964;21.838;2023-01-25T05:09:49;7.65;;;3.80;;
76322;SDS011;65141;42.964;21.838;2023-01-25T05:12:15;8.63;;;4.22;;
76322;SDS011;65141;42.964;21.838;2023-01-25T05:14:41;7.75;;;4.53;;
76322;SDS011;65141;42.964;21.838;2023-01-25T05:17:07;8.18;;;4.03;;
76322;SDS011;65141;42.964;21.838;2023-01-25T05:19:33;8.27;;;4.50;;
76322;SDS011;65141;42.964;21.838;2023-01-25T05:22:00;9.85;;;4.82;;
76322;SDS011;65141;42.964;21.838;2023-01-25T05:24:31;11.85;;;5.50;;
76322;SDS011;65141;42.964;21.838;2023-01-25T05:26:58;9.77;;;4.65;;
76322;SDS011;65141;42.964;21.838;2023-01-25T05:29:27;11.90;;;5.43;;
76322;SDS011;65141;42.964;21.838;2023-01-25T05:31:53;8.02;;;4.28;;
76322;SDS011;65141;42.964;21.838;2023-01-25T05:34:19;11.80;;;4.82;;
76322;SDS011;65141;42.964;21.838;2023-01-25T05:36:45;8.05;;;4.38;;
76322;SDS011;65141;42.964;21.838;2023-01-25T05:39:11;9.10;;;4.40;;
76322;SDS011;65141;42.964;21.838;2023-01-25T05:41:37;8.70;;;3.80;;
76322;SDS011;65141;42.964;21.838;2023-01-25T05:44:03;9.43;;;3.92;;
76322;SDS011;65141;42.964;21.838;2023-01-25T05:46:30;9.68;;;5.50;;
76322;SDS011;65141;42.964;21.838;2023-01-25T05:48:56;8.15;;;4.18;;
76322;SDS011;65141;42.964;21.838;2023-01-25T05:51:22;8.48;;;4.45;;
76322;SDS011;65141;42.964;21.838;2023-01-25T05:53:48;9.25;;;4.22;;
76322;SDS011;65141;42.964;21.838;2023-01-25T05:56:14;8.80;;;4.53;;
76322;SDS011;65141;42.964;21.838;2023-01-25T05:58:40;9.57;;;4.05;;
76322;SDS011;65141;42.964;21.838;2023-01-25T06:03:32;11.23;;;4.68;;
76322;SDS011;65141;42.964;21.838;2023-01-25T06:05:59;8.10;;;4.15;;
76322;SDS011;65141;42.964;21.838;2023-01-25T06:08:26;8.55;;;4.60;;
76322;SDS011;65141;42.964;21.838;2023-01-25T06:10:52;8.45;;;4.25;;
76322;SDS011;65141;42.964;21.838;2023-01-25T06:13:18;6.97;;;4.13;;
76322;SDS011;65141;42.964;21.838;2023-01-25T06:15:55;9.25;;;4.30;;
76322;SDS011;65141;42.964;21.838;2023-01-25T06:18:21;8.63;;;4.28;;
76322;SDS011;65141;42.964;21.838;2023-01-25T06:20:48;9.43;;;4.55;;
76322;SDS011;65141;42.964;21.838;2023-01-25T06:23:15;10.38;;;4.10;;
76322;SDS011;65141;42.964;21.838;2023-01-25T06:25:41;8.90;;;4.50;;
76322;SDS011;65141;42.964;21.838;2023-01-25T06:28:07;9.95;;;4.88;;
76322;SDS011;65141;42.964;21.838;2023-01-25T06:30:33;9.57;;;5.00;;
76322;SDS011;65141;42.964;21.838;2023-01-25T06:33:00;8.50;;;4.20;;
76322;SDS011;65141;42.964;21.838;2023-01-25T06:35:26;9.43;;;4.55;;
76322;SDS011;65141;42.964;21.838;2023-01-25T06:37:56;9.00;;;4.70;;
76322;SDS011;65141;42.964;21.838;2023-01-25T06:40:22;9.05;;;4.97;;
76322;SDS011;65141;42.964;21.838;2023-01-25T06:42:48;9.77;;;5.03;;
76322;SDS011;65141;42.964;21.838;2023-01-25T06:45:14;8.65;;;4.10;;
76322;SDS011;65141;42.964;21.838;2023-01-25T06:47:40;8.35;;;4.75;;
76322;SDS011;65141;42.964;21.838;2023-01-25T06:50:07;12.05;;;5.00;;
76322;SDS011;65141;42.964;21.838;2023-01-25T06:52:34;11.43;;;4.50;;
76322;SDS011;65141;42.964;21.838;2023-01-25T06:55:04;11.98;;;6.18;;
76322;SDS011;65141;42.964;21.838;2023-01-25T06:57:32;7.93;;;4.97;;
76322;SDS011;65141;42.964;21.838;2023-01-25T06:59:58;9.88;;;4.75;;
76322;SDS011;65141;42.964;21.838;2023-01-25T07:02:24;10.82;;;5.43;;
76322;SDS011;65141;42.964;21.838;2023-01-25T07:04:50;9.95;;;4.85;;
76322;SDS011;65141;42.964;21.838;2023-01-25T07:07:16;9.02;;;4.03;;
76322;SDS011;65141;42.964;21.838;2023-01-25T07:09:42;12.23;;;5.68;;
76322;SDS011;65141;42.964;21.838;2023-01-25T07:12:08;8.77;;;5.30;;
76322;SDS011;65141;42.964;21.838;2023-01-25T07:14:34;9.93;;;4.97;;
76322;SDS011;65141;42.964;21.838;2023-01-25T07:17:00;9.90;;;4.80;;
76322;SDS011;65141;42.964;21.838;2023-01-25T07:19:26;10.15;;;5.30;;
76322;SDS011;65141;42.964;21.838;2023-01-25T07:21:52;8.45;;;4.32;;
76322;SDS011;65141;42.964;21.838;2023-01-25T07:24:18;9.38;;;4.55;;
76322;SDS011;65141;42.964;21.838;2023-01-25T07:26:45;11.15;;;4.70;;
76322;SDS011;65141;42.964;21.838;2023-01-25T07:29:14;13.02;;;5.05;;
76322;SDS011;65141;42.964;21.838;2023-01-25T07:31:40;11.32;;;5.22;;
76322;SDS011;65141;42.964;21.838;2023-01-25T07:34:07;9.70;;;5.05;;
76322;SDS011;65141;42.964;21.838;2023-01-25T07:36:34;11.40;;;4.68;;
76322;SDS011;65141;42.964;21.838;2023-01-25T07:39:00;8.95;;;4.53;;
76322;SDS011;65141;42.964;21.838;2023-01-25T07:41:26;10.95;;;5.40;;
76322;SDS011;65141;42.964;21.838;2023-01-25T07:43:52;9.27;;;4.57;;
76322;SDS011;65141;42.964;21.838;2023-01-25T07:46:18;12.52;;;5.93;;
76322;SDS011;65141;42.964;21.838;2023-01-25T07:48:49;8.68;;;4.80;;
76322;SDS011;65141;42.964;21.838;2023-01-25T07:51:15;9.25;;;4.15;;
76322;SDS011;65141;42.964;21.838;2023-01-25T07:56:15;8.85;;;4.40;;
76322;SDS011;65141;42.964;21.838;2023-01-25T07:58:42;10.35;;;5.68;;
76322;SDS011;65141;42.964;21.838;2023-01-25T08:01:12;9.43;;;4.35;;
76322;SDS011;65141;42.964;21.838;2023-01-25T08:03:39;11.52;;;6.05;;
76322;SDS011;65141;42.964;21.838;2023-01-25T08:06:05;9.35;;;4.97;;
76322;SDS011;65141;42.964;21.838;2023-01-25T08:08:33;11.00;;;4.70;;
76322;SDS011;65141;42.964;21.838;2023-01-25T08:11:00;11.57;;;5.55;;
76322;SDS011;65141;42.964;21.838;2023-01-25T08:13:31;11.32;;;5.70;;
76322;SDS011;65141;42.964;21.838;2023-01-25T08:15:57;8.75;;;4.40;;
76322;SDS011;65141;42.964;21.838;2023-01-25T08:18:23;13.32;;;6.07;;
76322;SDS011;65141;42.964;21.838;2023-01-25T08:20:49;9.65;;;5.10;;
76322;SDS011;65141;42.964;21.838;2023-01-25T08:23:15;10.75;;;5.47;;
76322;SDS011;65141;42.964;21.838;2023-01-25T08:25:44;11.20;;;5.55;;
76322;SDS011;65141;42.964;21.838;2023-01-25T08:28:10;11.82;;;5.07;;
76322;SDS011;65141;42.964;21.838;2023-01-25T08:30:36;9.48;;;5.03;;
76322;SDS011;65141;42.964;21.838;2023-01-25T08:33:02;10.40;;;5.68;;
76322;SDS011;65141;42.964;21.838;2023-01-25T08:35:28;9.95;;;4.95;;
76322;SDS011;65141;42.964;21.838;2023-01-25T08:37:54;11.32;;;5.05;;
76322;SDS011;65141;42.964;21.838;2023-01-25T08:40:20;12.70;;;5.85;;
76322;SDS011;65141;42.964;21.838;2023-01-25T08:42:46;11.52;;;5.60;;
76322;SDS011;65141;42.964;21.838;2023-01-25T08:45:13;10.25;;;5.65;;
76322;SDS011;65141;42.964;21.838;2023-01-25T08:47:39;10.77;;;5.43;;
76322;SDS011;65141;42.964;21.838;2023-01-25T08:50:05;12.75;;;6.82;;
76322;SDS011;65141;42.964;21.838;2023-01-25T08:52:31;10.18;;;5.95;;
76322;SDS011;65141;42.964;21.838;2023-01-25T08:54:57;11.25;;;4.80;;
76322;SDS011;65141;42.964;21.838;2023-01-25T08:57:23;11.68;;;5.82;;
76322;SDS011;65141;42.964;21.838;2023-01-25T08:59:49;11.35;;;5.32;;
76322;SDS011;65141;42.964;21.838;2023-01-25T09:02:15;13.18;;;5.53;;
76322;SDS011;65141;42.964;21.838;2023-01-25T09:04:43;12.80;;;6.25;;
76322;SDS011;65141;42.964;21.838;2023-01-25T09:07:09;10.52;;;5.32;;
76322;SDS011;65141;42.964;21.838;2023-01-25T09:09:35;12.85;;;5.68;;
76322;SDS011;65141;42.964;21.838;2023-01-25T09:12:01;15.48;;;7.95;;
76322;SDS011;65141;42.964;21.838;2023-01-25T09:14:27;15.13;;;7.15;;
76322;SDS011;65141;42.964;21.838;2023-01-25T09:16:53;11.63;;;6.40;;
76322;SDS011;65141;42.964;21.838;2023-01-25T09:19:19;11.18;;;5.95;;
76322;SDS011;65141;42.964;21.838;2023-01-25T09:21:45;11.95;;;5.93;;
76322;SDS011;65141;42.964;21.838;2023-01-25T09:24:12;10.40;;;5.20;;
76322;SDS011;65141;42.964;21.838;2023-01-25T09:26:39;11.55;;;5.28;;
76322;SDS011;65141;42.964;21.838;2023-01-25T09:29:06;12.80;;;5.13;;
76322;SDS011;65141;42.964;21.838;2023-01-25T09:31:32;9.45;;;5.22;;
76322;SDS011;65141;42.964;21.838;2023-01-25T09:33:58;7.80;;;4.43;;
76322;SDS011;65141;42.964;21.838;2023-01-25T09:36:25;9.23;;;4.82;;
76322;SDS011;65141;42.964;21.838;2023-01-25T09:38:51;10.13;;;6.13;;
76322;SDS011;65141;42.964;21.838;2023-01-25T09:44:11;11.98;;;5.60;;
76322;SDS011;65141;42.964;21.838;2023-01-25T09:46:43;11.90;;;6.18;;
76322;SDS011;65141;42.964;21.838;2023-01-25T09:54:08;10.80;;;4.85;;
76322;SDS011;65141;42.964;21.838;2023-01-25T09:56:34;11.02;;;6.03;;
76322;SDS011;65141;42.964;21.838;2023-01-25T09:59:03;11.35;;;5.80;;
76322;SDS011;65141;42.964;21.838;2023-01-25T10:04:00;11.43;;;6.15;;
76322;SDS011;65141;42.964;21.838;2023-01-25T10:06:38;11.75;;;5.97;;
76322;SDS011;65141;42.964;21.838;2023-01-25T10:11:50;12.15;;;5.65;;
76322;SDS011;65141;42.964;21.838;2023-01-25T10:14:17;10.25;;;5.97;;
76322;SDS011;65141;42.964;21.838;2023-01-25T10:21:54;15.50;;;7.05;;
76322;SDS011;65141;42.964;21.838;2023-01-25T10:26:49;11.93;;;6.25;;
76322;SDS011;65141;42.964;21.838;2023-01-25T10:29:20;12.65;;;6.63;;
76322;SDS011;65141;42.964;21.838;2023-01-25T10:31:47;13.80;;;7.45;;
76322;SDS011;65141;42.964;21.838;2023-01-25T10:36:44;13.45;;;7.05;;
76322;SDS011;65141;42.964;21.838;2023-01-25T10:39:11;15.02;;;8.40;;
76322;SDS011;65141;42.964;21.838;2023-01-25T10:41:41;15.05;;;7.25;;
76322;SDS011;65141;42.964;21.838;2023-01-25T10:44:10;12.98;;;6.03;;
76322;SDS011;65141;42.964;21.838;2023-01-25T10:46:48;10.90;;;5.63;;
76322;SDS011;65141;42.964;21.838;2023-01-25T10:49:21;12.75;;;6.93;;
76322;SDS011;65141;42.964;21.838;2023-01-25T10:51:48;12.63;;;6.78;;
76322;SDS011;65141;42.964;21.838;2023-01-25T10:54:14;12.45;;;6.00;;
76322;SDS011;65141;42.964;21.838;2023-01-25T10:56:41;11.13;;;6.10;;
76322;SDS011;65141;42.964;21.838;2023-01-25T10:59:19;12.80;;;6.15;;
76322;SDS011;65141;42.964;21.838;2023-01-25T11:01:46;12.52;;;5.43;;
76322;SDS011;65141;42.964;21.838;2023-01-25T11:06:58;11.40;;;6.55;;
76322;SDS011;65141;42.964;21.838;2023-01-25T11:09:31;12.45;;;5.85;;
76322;SDS011;65141;42.964;21.838;2023-01-25T11:11:58;9.60;;;5.93;;
76322;SDS011;65141;42.964;21.838;2023-01-25T11:14:25;9.63;;;5.45;;
76322;SDS011;65141;42.964;21.838;2023-01-25T11:16:52;11.13;;;6.85;;
76322;SDS011;65141;42.964;21.838;2023-01-25T11:19:38;11.93;;;7.13;;
76322;SDS011;65141;42.964;21.838;2023-01-25T11:22:08;11.45;;;7.45;;
76322;SDS011;65141;42.964;21.838;2023-01-25T11:24:44;13.35;;;6.88;;
76322;SDS011;65141;42.964;21.838;2023-01-25T11:27:21;12.05;;;5.95;;
76322;SDS011;65141;42.964;21.838;2023-01-25T11:32:32;11.68;;;6.25;;
76322;SDS011;65141;42.964;21.838;2023-01-25T11:34:58;10.07;;;5.78;;
76322;SDS011;65141;42.964;21.838;2023-01-25T11:42:33;8.57;;;5.45;;
76322;SDS011;65141;42.964;21.838;2023-01-25T11:50:44;10.48;;;5.95;;
76322;SDS011;65141;42.964;21.838;2023-01-25T11:53:21;10.98;;;5.97;;
76322;SDS011;65141;42.964;21.838;2023-01-25T12:11:33;10.52;;;5.80;;
76322;SDS011;65141;42.964;21.838;2023-01-25T12:24:20;10.23;;;5.60;;
76322;SDS011;65141;42.964;21.838;2023-01-25T12:29:44;10.98;;;5.38;;
76322;SDS011;65141;42.964;21.838;2023-01-25T12:32:14;11.45;;;5.82;;
76322;SDS011;65141;42.964;21.838;2023-01-25T12:34:43;9.50;;;5.32;;
76322;SDS011;65141;42.964;21.838;2023-01-25T12:37:13;10.10;;;5.85;;
76322;SDS011;65141;42.964;21.838;2023-01-25T12:42:17;9.98;;;4.95;;
76322;SDS011;65141;42.964;21.838;2023-01-25T12:44:56;10.93;;;5.25;;
76322;SDS011;65141;42.964;21.838;2023-01-25T12:47:27;8.18;;;4.93;;
76322;SDS011;65141;42.964;21.838;2023-01-25T12:55:14;10.27;;;5.38;;
76322;SDS011;65141;42.964;21.838;2023-01-25T13:03:55;10.55;;;6.15;;
76322;SDS011;65141;42.964;21.838;2023-01-25T13:08:58;10.40;;;5.82;;
76322;SDS011;65141;42.964;21.838;2023-01-25T13:11:32;7.65;;;4.70;;
76322;SDS011;65141;42.964;21.838;2023-01-25T13:19:18;7.47;;;4.57;;
76322;SDS011;65141;42.964;21.838;2023-01-25T13:21:45;8.65;;;4.60;;
76322;SDS011;65141;42.964;21.838;2023-01-25T13:32:01;9.02;;;5.50;;
76322;SDS011;65141;42.964;21.838;2023-01-25T13:37:21;10.35;;;5.47;;
76322;SDS011;65141;42.964;21.838;2023-01-25T13:44:48;8.13;;;4.80;;
76322;SDS011;65141;42.964;21.838;2023-01-25T13:47:16;9.40;;;4.30;;
76322;SDS011;65141;42.964;21.838;2023-01-25T13:52:13;7.35;;;3.88;;
76322;SDS011;65141;42.964;21.838;2023-01-25T13:54:47;8.55;;;4.57;;
76322;SDS011;65141;42.964;21.838;2023-01-25T13:57:14;6.28;;;4.30;;
76322;SDS011;65141;42.964;21.838;2023-01-25T13:59:44;9.10;;;4.78;;
76322;SDS011;65141;42.964;21.838;2023-01-25T14:02:20;9.10;;;5.07;;
76322;SDS011;65141;42.964;21.838;2023-01-25T14:04:48;9.15;;;5.38;;
76322;SDS011;65141;42.964;21.838;2023-01-25T14:07:17;8.55;;;4.63;;
76322;SDS011;65141;42.964;21.838;2023-01-25T14:12:10;10.82;;;4.93;;
76322;SDS011;65141;42.964;21.838;2023-01-25T14:14:37;10.82;;;5.18;;
76322;SDS011;65141;42.964;21.838;2023-01-25T14:19:35;12.00;;;6.05;;
76322;SDS011;65141;42.964;21.838;2023-01-25T14:24:37;9.02;;;5.43;;
76322;SDS011;65141;42.964;21.838;2023-01-25T14:27:03;9.98;;;5.30;;
76322;SDS011;65141;42.964;21.838;2023-01-25T14:29:29;10.20;;;4.90;;
76322;SDS011;65141;42.964;21.838;2023-01-25T14:31:58;9.90;;;5.35;;
76322;SDS011;65141;42.964;21.838;2023-01-25T14:34:24;7.57;;;3.90;;
76322;SDS011;65141;42.964;21.838;2023-01-25T14:37:04;8.73;;;4.70;;
76322;SDS011;65141;42.964;21.838;2023-01-25T14:39:31;10.45;;;4.80;;
76322;SDS011;65141;42.964;21.838;2023-01-25T14:41:57;9.68;;;4.60;;
76322;SDS011;65141;42.964;21.838;2023-01-25T14:44:24;9.27;;;5.53;;
76322;SDS011;65141;42.964;21.838;2023-01-25T14:47:18;8.27;;;4.80;;
76322;SDS011;65141;42.964;21.838;2023-01-25T14:49:36;9.32;;;5.47;;
76322;SDS011;65141;42.964;21.838;2023-01-25T14:52:08;10.30;;;5.57;;
76322;SDS011;65141;42.964;21.838;2023-01-25T14:54:36;9.23;;;5.60;;
76322;SDS011;65141;42.964;21.838;2023-01-25T14:59:53;9.15;;;5.53;;
76322;SDS011;65141;42.964;21.838;2023-01-25T15:02:28;8.18;;;4.65;;
76322;SDS011;65141;42.964;21.838;2023-01-25T15:05:01;9.52;;;4.70;;
76322;SDS011;65141;42.964;21.838;2023-01-25T15:10:13;9.85;;;5.18;;
76322;SDS011;65141;42.964;21.838;2023-01-25T15:12:39;12.20;;;5.95;;
76322;SDS011;65141;42.964;21.838;2023-01-25T15:15:18;9.07;;;6.47;;
76322;SDS011;65141;42.964;21.838;2023-01-25T15:17:46;9.60;;;6.38;;
76322;SDS011;65141;42.964;21.838;2023-01-25T15:20:46;9.30;;;5.78;;
76322;SDS011;65141;42.964;21.838;2023-01-25T15:23:23;7.75;;;4.57;;
76322;SDS011;65141;42.964;21.838;2023-01-25T15:25:54;8.57;;;4.88;;
76322;SDS011;65141;42.964;21.838;2023-01-25T15:28:21;10.88;;;5.45;;
76322;SDS011;65141;42.964;21.838;2023-01-25T15:30:48;8.07;;;5.15;;
76322;SDS011;65141;42.964;21.838;2023-01-25T15:33:21;10.20;;;5.60;;
76322;SDS011;65141;42.964;21.838;2023-01-25T15:35:48;8.85;;;5.30;;
76322;SDS011;65141;42.964;21.838;2023-01-25T15:38:14;10.68;;;4.82;;
76322;SDS011;65141;42.964;21.838;2023-01-25T15:40:41;7.22;;;5.07;;
76322;SDS011;65141;42.964;21.838;2023-01-25T15:43:17;8.30;;;4.35;;
76322;SDS011;65141;42.964;21.838;2023-01-25T15:45:47;11.18;;;5.35;;
76322;SDS011;65141;42.964;21.838;2023-01-25T15:48:21;10.07;;;5.07;;
76322;SDS011;65141;42.964;21.838;2023-01-25T15:50:48;9.35;;;5.43;;
76322;SDS011;65141;42.964;21.838;2023-01-25T15:53:15;10.65;;;5.30;;
76322;SDS011;65141;42.964;21.838;2023-01-25T15:55:44;10.55;;;5.32;;
76322;SDS011;65141;42.964;21.838;2023-01-25T15:58:13;9.18;;;4.93;;
76322;SDS011;65141;42.964;21.838;2023-01-25T16:00:43;10.90;;;5.90;;
76322;SDS011;65141;42.964;21.838;2023-01-25T16:03:09;11.13;;;5.93;;
76322;SDS011;65141;42.964;21.838;2023-01-25T16:05:35;9.38;;;4.70;;
76322;SDS011;65141;42.964;21.838;2023-01-25T16:08:01;10.07;;;5.47;;
76322;SDS011;65141;42.964;21.838;2023-01-25T16:10:27;9.73;;;5.38;;
76322;SDS011;65141;42.964;21.838;2023-01-25T16:12:53;9.80;;;5.32;;
76322;SDS011;65141;42.964;21.838;2023-01-25T16:15:19;10.82;;;6.50;;
76322;SDS011;65141;42.964;21.838;2023-01-25T16:17:45;11.02;;;5.03;;
76322;SDS011;65141;42.964;21.838;2023-01-25T16:20:16;11.18;;;5.80;;
76322;SDS011;65141;42.964;21.838;2023-01-25T16:22:42;9.23;;;5.95;;
76322;SDS011;65141;42.964;21.838;2023-01-25T16:25:08;9.00;;;5.70;;
76322;SDS011;65141;42.964;21.838;2023-01-25T16:27:35;9.80;;;5.60;;
76322;SDS011;65141;42.964;21.838;2023-01-25T16:30:01;7.97;;;5.13;;
76322;SDS011;65141;42.964;21.838;2023-01-25T16:32:28;7.65;;;4.85;;
76322;SDS011;65141;42.964;21.838;2023-01-25T16:34:54;10.38;;;5.05;;
76322;SDS011;65141;42.964;21.838;2023-01-25T16:37:20;9.05;;;5.32;;
76322;SDS011;65141;42.964;21.838;2023-01-25T16:39:46;7.93;;;4.80;;
76322;SDS011;65141;42.964;21.838;2023-01-25T16:42:13;8.45;;;4.95;;
76322;SDS011;65141;42.964;21.838;2023-01-25T16:44:39;9.73;;;5.57;;
76322;SDS011;65141;42.964;21.838;2023-01-25T16:47:05;8.25;;;4.00;;
76322;SDS011;65141;42.964;21.838;2023-01-25T16:49:32;7.75;;;4.85;;
76322;SDS011;65141;42.964;21.838;2023-01-25T16:52:00;7.93;;;4.32;;